sensor_id;sensor_type;location;lat;lon;timestamp;P1;durP1;ratioP1;P2;durP2;ratioP2
14708;SDS011;7445;50.774;4.944;2023-04-15T07:16:38;7.63;;;6.93;;
14708;SDS011;7445;50.774;4.944;2023-04-15T07:19:04;13.27;;;8.10;;
14708;SDS011;7445;50.774;4.944;2023-04-15T07:21:29;10.00;;;6.20;;
14708;SDS011;7445;50.774;4.944;2023-04-15T07:23:56;10.33;;;8.17;;
14708;SDS011;7445;50.774;4.944;2023-04-15T07:26:22;10.23;;;7.57;;
14708;SDS011;7445;50.774;4.944;2023-04-15T07:28:48;8.87;;;7.10;;
14708;SDS011;7445;50.774;4.944;2023-04-15T07:31:14;9.97;;;7.40;;
14708;SDS011;7445;50.774;4.944;2023-04-15T07:33:41;8.97;;;8.03;;
14708;SDS011;7445;50.774;4.944;2023-04-15T07:36:06;15.57;;;9.10;;
14708;SDS011;7445;50.774;4.944;2023-04-15T07:38:33;9.27;;;8.43;;
14708;SDS011;7445;50.774;4.944;2023-04-15T07:40:58;9.83;;;8.83;;
14708;SDS011;7445;50.774;4.944;2023-04-15T07:43:24;9.33;;;8.53;;
14708;SDS011;7445;50.774;4.944;2023-04-15T07:45:51;11.03;;;9.90;;
14708;SDS011;7445;50.774;4.944;2023-04-15T07:48:17;18.07;;;9.93;;
14708;SDS011;7445;50.774;4.944;2023-04-15T07:50:42;12.23;;;10.47;;
14708;SDS011;7445;50.774;4.944;2023-04-15T07:53:08;13.43;;;10.30;;
14708;SDS011;7445;50.774;4.944;2023-04-15T07:55:34;12.33;;;11.03;;
14708;SDS011;7445;50.774;4.944;2023-04-15T07:57:59;15.93;;;11.23;;
14708;SDS011;7445;50.774;4.944;2023-04-15T08:00:25;11.03;;;10.03;;
14708;SDS011;7445;50.774;4.944;2023-04-15T08:02:51;12.30;;;10.33;;
14708;SDS011;7445;50.774;4.944;2023-04-15T08:05:17;17.33;;;11.43;;
14708;SDS011;7445;50.774;4.944;2023-04-15T08:07:44;13.27;;;11.90;;
14708;SDS011;7445;50.774;4.944;2023-04-15T08:10:10;12.67;;;9.97;;
14708;SDS011;7445;50.774;4.944;2023-04-15T08:12:36;12.03;;;10.83;;
14708;SDS011;7445;50.774;4.944;2023-04-15T08:15:02;11.97;;;10.83;;
14708;SDS011;7445;50.774;4.944;2023-04-15T08:17:28;14.80;;;11.50;;
14708;SDS011;7445;50.774;4.944;2023-04-15T08:19:53;11.60;;;10.67;;
14708;SDS011;7445;50.774;4.944;2023-04-15T08:22:19;14.57;;;11.93;;
14708;SDS011;7445;50.774;4.944;2023-04-15T08:24:45;11.40;;;10.00;;
14708;SDS011;7445;50.774;4.944;2023-04-15T08:27:10;12.67;;;11.57;;
14708;SDS011;7445;50.774;4.944;2023-04-15T08:29:36;12.03;;;10.77;;
14708;SDS011;7445;50.774;4.944;2023-04-15T08:32:01;12.37;;;10.73;;
14708;SDS011;7445;50.774;4.944;2023-04-15T08:34:28;14.33;;;12.47;;
14708;SDS011;7445;50.774;4.944;2023-04-15T08:36:54;11.60;;;10.43;;
14708;SDS011;7445;50.774;4.944;2023-04-15T08:39:19;14.40;;;10.40;;
14708;SDS011;7445;50.774;4.944;2023-04-15T08:41:46;11.13;;;10.10;;
14708;SDS011;7445;50.774;4.944;2023-04-15T08:44:32;11.80;;;10.60;;
14708;SDS011;7445;50.774;4.944;2023-04-15T08:47:02;17.43;;;10.90;;
14708;SDS011;7445;50.774;4.944;2023-04-15T08:49:31;15.13;;;11.43;;
14708;SDS011;7445;50.774;4.944;2023-04-15T08:51:59;19.47;;;9.27;;
14708;SDS011;7445;50.774;4.944;2023-04-15T08:54:25;10.00;;;8.97;;
14708;SDS011;7445;50.774;4.944;2023-04-15T08:56:52;9.47;;;8.67;;
14708;SDS011;7445;50.774;4.944;2023-04-15T08:59:18;12.07;;;9.30;;
14708;SDS011;7445;50.774;4.944;2023-04-15T09:01:46;10.80;;;8.53;;
14708;SDS011;7445;50.774;4.944;2023-04-15T09:04:12;10.57;;;9.57;;
14708;SDS011;7445;50.774;4.944;2023-04-15T09:06:38;11.90;;;9.40;;
14708;SDS011;7445;50.774;4.944;2023-04-15T09:09:05;10.60;;;9.43;;
14708;SDS011;7445;50.774;4.944;2023-04-15T09:11:31;11.13;;;10.07;;
14708;SDS011;7445;50.774;4.944;2023-04-15T09:13:56;12.40;;;11.13;;
14708;SDS011;7445;50.774;4.944;2023-04-15T09:16:22;11.97;;;10.80;;
14708;SDS011;7445;50.774;4.944;2023-04-15T09:18:48;11.47;;;10.40;;
14708;SDS011;7445;50.774;4.944;2023-04-15T09:21:15;13.80;;;11.27;;
14708;SDS011;7445;50.774;4.944;2023-04-15T09:23:57;12.67;;;11.50;;
14708;SDS011;7445;50.774;4.944;2023-04-15T09:26:31;14.00;;;12.60;;
14708;SDS011;7445;50.774;4.944;2023-04-15T09:29:05;13.67;;;12.33;;
14708;SDS011;7445;50.774;4.944;2023-04-15T09:31:32;14.07;;;12.67;;
14708;SDS011;7445;50.774;4.944;2023-04-15T09:33:57;13.50;;;12.27;;
14708;SDS011;7445;50.774;4.944;2023-04-15T09:36:23;15.50;;;14.00;;
14708;SDS011;7445;50.774;4.944;2023-04-15T09:38:59;14.27;;;12.00;;
14708;SDS011;7445;50.774;4.944;2023-04-15T09:41:25;11.07;;;9.53;;
14708;SDS011;7445;50.774;4.944;2023-04-15T09:43:52;11.20;;;10.10;;
14708;SDS011;7445;50.774;4.944;2023-04-15T09:46:18;13.07;;;11.87;;
14708;SDS011;7445;50.774;4.944;2023-04-15T09:48:44;10.33;;;9.20;;
14708;SDS011;7445;50.774;4.944;2023-04-15T09:51:10;11.67;;;10.50;;
14708;SDS011;7445;50.774;4.944;2023-04-15T09:53:35;11.53;;;10.47;;
14708;SDS011;7445;50.774;4.944;2023-04-15T09:56:04;11.77;;;10.30;;
14708;SDS011;7445;50.774;4.944;2023-04-15T09:58:33;11.40;;;10.37;;
14708;SDS011;7445;50.774;4.944;2023-04-15T10:01:01;11.10;;;10.00;;
14708;SDS011;7445;50.774;4.944;2023-04-15T10:03:28;11.07;;;9.73;;
14708;SDS011;7445;50.774;4.944;2023-04-15T10:05:57;10.77;;;9.83;;
14708;SDS011;7445;50.774;4.944;2023-04-15T10:08:32;10.33;;;9.33;;
14708;SDS011;7445;50.774;4.944;2023-04-15T10:11:01;9.43;;;8.63;;
14708;SDS011;7445;50.774;4.944;2023-04-15T10:13:30;10.23;;;8.00;;
14708;SDS011;7445;50.774;4.944;2023-04-15T10:16:05;8.63;;;7.70;;
14708;SDS011;7445;50.774;4.944;2023-04-15T10:18:35;8.20;;;7.40;;
14708;SDS011;7445;50.774;4.944;2023-04-15T10:21:04;7.03;;;6.33;;
14708;SDS011;7445;50.774;4.944;2023-04-15T10:23:33;13.00;;;8.03;;
14708;SDS011;7445;50.774;4.944;2023-04-15T10:25:58;9.33;;;8.23;;
14708;SDS011;7445;50.774;4.944;2023-04-15T10:28:25;8.73;;;8.03;;
14708;SDS011;7445;50.774;4.944;2023-04-15T10:30:51;8.37;;;7.57;;
14708;SDS011;7445;50.774;4.944;2023-04-15T10:33:19;8.80;;;7.90;;
14708;SDS011;7445;50.774;4.944;2023-04-15T10:35:47;9.13;;;8.23;;
14708;SDS011;7445;50.774;4.944;2023-04-15T10:43:51;8.67;;;7.73;;
14708;SDS011;7445;50.774;4.944;2023-04-15T10:46:23;9.07;;;8.13;;
14708;SDS011;7445;50.774;4.944;2023-04-15T10:49:00;7.90;;;7.20;;
14708;SDS011;7445;50.774;4.944;2023-04-15T10:51:38;7.40;;;6.63;;
14708;SDS011;7445;50.774;4.944;2023-04-15T10:54:08;7.77;;;7.07;;
14708;SDS011;7445;50.774;4.944;2023-04-15T10:56:43;6.47;;;5.87;;
14708;SDS011;7445;50.774;4.944;2023-04-15T10:59:09;7.17;;;6.50;;
14708;SDS011;7445;50.774;4.944;2023-04-15T11:07:58;9.20;;;7.17;;
14708;SDS011;7445;50.774;4.944;2023-04-15T11:12:52;7.40;;;5.73;;
14708;SDS011;7445;50.774;4.944;2023-04-15T11:18:18;7.80;;;5.47;;
14708;SDS011;7445;50.774;4.944;2023-04-15T11:20:43;5.27;;;4.70;;
14708;SDS011;7445;50.774;4.944;2023-04-15T11:23:09;5.47;;;4.87;;
14708;SDS011;7445;50.774;4.944;2023-04-15T11:25:35;5.13;;;4.63;;
14708;SDS011;7445;50.774;4.944;2023-04-15T11:28:01;4.70;;;4.20;;
14708;SDS011;7445;50.774;4.944;2023-04-15T11:30:28;7.43;;;4.83;;
14708;SDS011;7445;50.774;4.944;2023-04-15T11:33:03;5.03;;;4.53;;
14708;SDS011;7445;50.774;4.944;2023-04-15T11:35:30;6.67;;;4.33;;
14708;SDS011;7445;50.774;4.944;2023-04-15T11:37:56;4.63;;;4.23;;
14708;SDS011;7445;50.774;4.944;2023-04-15T11:40:23;6.43;;;4.67;;
14708;SDS011;7445;50.774;4.944;2023-04-15T11:43:06;4.77;;;4.27;;
14708;SDS011;7445;50.774;4.944;2023-04-15T11:48:24;5.87;;;4.43;;
14708;SDS011;7445;50.774;4.944;2023-04-15T11:50:52;5.60;;;4.50;;
14708;SDS011;7445;50.774;4.944;2023-04-15T11:53:19;6.00;;;5.40;;
14708;SDS011;7445;50.774;4.944;2023-04-15T11:55:49;4.30;;;3.90;;
14708;SDS011;7445;50.774;4.944;2023-04-15T11:58:23;3.80;;;2.90;;
14708;SDS011;7445;50.774;4.944;2023-04-15T12:00:54;3.00;;;2.33;;
14708;SDS011;7445;50.774;4.944;2023-04-15T12:03:30;5.60;;;2.70;;
14708;SDS011;7445;50.774;4.944;2023-04-15T12:06:08;3.70;;;1.97;;
14708;SDS011;7445;50.774;4.944;2023-04-15T12:09:04;3.47;;;2.30;;
14708;SDS011;7445;50.774;4.944;2023-04-15T12:11:49;4.00;;;2.87;;
14708;SDS011;7445;50.774;4.944;2023-04-15T12:16:49;2.97;;;2.40;;
14708;SDS011;7445;50.774;4.944;2023-04-15T12:19:26;6.37;;;3.03;;
14708;SDS011;7445;50.774;4.944;2023-04-15T12:21:56;3.70;;;2.70;;
14708;SDS011;7445;50.774;4.944;2023-04-15T12:24:26;4.57;;;3.10;;
14708;SDS011;7445;50.774;4.944;2023-04-15T12:26:53;2.73;;;2.53;;
14708;SDS011;7445;50.774;4.944;2023-04-15T12:29:24;2.47;;;2.10;;
14708;SDS011;7445;50.774;4.944;2023-04-15T12:31:53;2.47;;;2.20;;
14708;SDS011;7445;50.774;4.944;2023-04-15T12:34:26;2.53;;;2.33;;
14708;SDS011;7445;50.774;4.944;2023-04-15T12:36:54;2.03;;;1.93;;
14708;SDS011;7445;50.774;4.944;2023-04-15T12:39:23;2.57;;;2.37;;
14708;SDS011;7445;50.774;4.944;2023-04-15T12:41:51;2.80;;;2.60;;
14708;SDS011;7445;50.774;4.944;2023-04-15T12:44:17;2.60;;;2.40;;
14708;SDS011;7445;50.774;4.944;2023-04-15T12:46:43;3.90;;;2.60;;
14708;SDS011;7445;50.774;4.944;2023-04-15T12:49:09;3.60;;;3.10;;
14708;SDS011;7445;50.774;4.944;2023-04-15T12:51:35;3.37;;;3.07;;
14708;SDS011;7445;50.774;4.944;2023-04-15T12:54:01;3.60;;;2.97;;
14708;SDS011;7445;50.774;4.944;2023-04-15T12:56:27;3.33;;;2.73;;
14708;SDS011;7445;50.774;4.944;2023-04-15T12:58:53;3.10;;;2.90;;
14708;SDS011;7445;50.774;4.944;2023-04-15T13:01:19;4.10;;;1.40;;
14708;SDS011;7445;50.774;4.944;2023-04-15T13:03:45;1.80;;;1.70;;
14708;SDS011;7445;50.774;4.944;2023-04-15T13:06:10;1.90;;;1.63;;
14708;SDS011;7445;50.774;4.944;2023-04-15T13:08:36;2.23;;;2.07;;
14708;SDS011;7445;50.774;4.944;2023-04-15T13:11:02;1.67;;;1.43;;
14708;SDS011;7445;50.774;4.944;2023-04-15T13:13:28;1.87;;;1.37;;
14708;SDS011;7445;50.774;4.944;2023-04-15T13:15:55;1.73;;;1.60;;
14708;SDS011;7445;50.774;4.944;2023-04-15T13:18:21;7.07;;;1.87;;
14708;SDS011;7445;50.774;4.944;2023-04-15T13:20:47;3.53;;;1.97;;
14708;SDS011;7445;50.774;4.944;2023-04-15T13:23:13;1.70;;;1.60;;
14708;SDS011;7445;50.774;4.944;2023-04-15T13:25:39;2.90;;;1.60;;
14708;SDS011;7445;50.774;4.944;2023-04-15T13:28:05;3.40;;;2.07;;
14708;SDS011;7445;50.774;4.944;2023-04-15T13:30:30;2.77;;;2.57;;
14708;SDS011;7445;50.774;4.944;2023-04-15T13:32:56;2.03;;;1.40;;
14708;SDS011;7445;50.774;4.944;2023-04-15T13:35:22;2.10;;;1.57;;
14708;SDS011;7445;50.774;4.944;2023-04-15T13:37:47;4.27;;;2.57;;
14708;SDS011;7445;50.774;4.944;2023-04-15T13:40:13;2.03;;;1.87;;
14708;SDS011;7445;50.774;4.944;2023-04-15T13:42:39;2.33;;;2.13;;
14708;SDS011;7445;50.774;4.944;2023-04-15T13:45:06;2.13;;;2.03;;
14708;SDS011;7445;50.774;4.944;2023-04-15T13:47:32;3.13;;;1.93;;
14708;SDS011;7445;50.774;4.944;2023-04-15T13:49:58;2.70;;;2.27;;
14708;SDS011;7445;50.774;4.944;2023-04-15T13:52:24;2.57;;;2.13;;
14708;SDS011;7445;50.774;4.944;2023-04-15T13:54:49;3.67;;;1.97;;
14708;SDS011;7445;50.774;4.944;2023-04-15T13:57:15;1.80;;;1.70;;
14708;SDS011;7445;50.774;4.944;2023-04-15T13:59:41;2.00;;;1.70;;
14708;SDS011;7445;50.774;4.944;2023-04-15T14:02:08;2.13;;;2.00;;
14708;SDS011;7445;50.774;4.944;2023-04-15T14:04:34;1.97;;;1.87;;
14708;SDS011;7445;50.774;4.944;2023-04-15T14:06:59;4.80;;;2.07;;
14708;SDS011;7445;50.774;4.944;2023-04-15T14:09:25;2.00;;;1.80;;
14708;SDS011;7445;50.774;4.944;2023-04-15T14:11:51;2.97;;;2.00;;
14708;SDS011;7445;50.774;4.944;2023-04-15T14:14:17;2.30;;;2.10;;
14708;SDS011;7445;50.774;4.944;2023-04-15T14:16:42;3.70;;;2.03;;
14708;SDS011;7445;50.774;4.944;2023-04-15T14:19:08;4.50;;;3.10;;
14708;SDS011;7445;50.774;4.944;2023-04-15T14:21:34;3.33;;;2.83;;
14708;SDS011;7445;50.774;4.944;2023-04-15T14:23:59;4.93;;;2.57;;
14708;SDS011;7445;50.774;4.944;2023-04-15T14:26:25;9.27;;;3.53;;
14708;SDS011;7445;50.774;4.944;2023-04-15T14:28:51;3.83;;;2.53;;
14708;SDS011;7445;50.774;4.944;2023-04-15T14:31:17;2.73;;;2.23;;
14708;SDS011;7445;50.774;4.944;2023-04-15T14:33:43;1.90;;;1.80;;
14708;SDS011;7445;50.774;4.944;2023-04-15T14:36:09;2.27;;;2.00;;
14708;SDS011;7445;50.774;4.944;2023-04-15T14:38:35;3.10;;;2.37;;
14708;SDS011;7445;50.774;4.944;2023-04-15T14:41:03;2.23;;;1.77;;
14708;SDS011;7445;50.774;4.944;2023-04-15T14:43:29;2.13;;;1.93;;
14708;SDS011;7445;50.774;4.944;2023-04-15T14:45:54;2.47;;;2.27;;
14708;SDS011;7445;50.774;4.944;2023-04-15T14:48:20;2.67;;;2.47;;
14708;SDS011;7445;50.774;4.944;2023-04-15T14:50:46;2.63;;;2.43;;
14708;SDS011;7445;50.774;4.944;2023-04-15T14:53:11;3.23;;;2.93;;
14708;SDS011;7445;50.774;4.944;2023-04-15T14:55:37;3.50;;;3.20;;
14708;SDS011;7445;50.774;4.944;2023-04-15T14:58:02;4.77;;;2.63;;
14708;SDS011;7445;50.774;4.944;2023-04-15T15:00:28;4.17;;;3.77;;
14708;SDS011;7445;50.774;4.944;2023-04-15T15:02:54;4.03;;;3.73;;
14708;SDS011;7445;50.774;4.944;2023-04-15T15:05:20;4.23;;;3.50;;
14708;SDS011;7445;50.774;4.944;2023-04-15T15:07:46;4.77;;;3.63;;
14708;SDS011;7445;50.774;4.944;2023-04-15T15:10:11;2.93;;;2.70;;
14708;SDS011;7445;50.774;4.944;2023-04-15T15:12:37;8.23;;;3.00;;
14708;SDS011;7445;50.774;4.944;2023-04-15T15:15:03;3.60;;;3.30;;
14708;SDS011;7445;50.774;4.944;2023-04-15T15:17:29;4.17;;;3.10;;
14708;SDS011;7445;50.774;4.944;2023-04-15T15:19:55;3.07;;;2.83;;
14708;SDS011;7445;50.774;4.944;2023-04-15T15:22:21;3.53;;;3.03;;
14708;SDS011;7445;50.774;4.944;2023-04-15T15:24:46;3.37;;;3.17;;
14708;SDS011;7445;50.774;4.944;2023-04-15T15:27:12;3.47;;;2.90;;
14708;SDS011;7445;50.774;4.944;2023-04-15T15:29:39;3.57;;;2.63;;
14708;SDS011;7445;50.774;4.944;2023-04-15T15:32:04;2.73;;;2.30;;
14708;SDS011;7445;50.774;4.944;2023-04-15T15:34:30;2.83;;;2.63;;
14708;SDS011;7445;50.774;4.944;2023-04-15T15:36:55;3.57;;;2.83;;
14708;SDS011;7445;50.774;4.944;2023-04-15T15:39:21;2.93;;;2.63;;
14708;SDS011;7445;50.774;4.944;2023-04-15T15:41:47;4.10;;;2.63;;
14708;SDS011;7445;50.774;4.944;2023-04-15T15:44:13;2.90;;;2.50;;
14708;SDS011;7445;50.774;4.944;2023-04-15T15:46:39;2.63;;;2.43;;
14708;SDS011;7445;50.774;4.944;2023-04-15T15:49:05;3.40;;;2.77;;
14708;SDS011;7445;50.774;4.944;2023-04-15T15:51:31;2.60;;;2.40;;
14708;SDS011;7445;50.774;4.944;2023-04-15T15:53:56;5.23;;;2.33;;
14708;SDS011;7445;50.774;4.944;2023-04-15T15:56:22;2.77;;;2.50;;
14708;SDS011;7445;50.774;4.944;2023-04-15T15:58:48;1.83;;;1.73;;
14708;SDS011;7445;50.774;4.944;2023-04-15T16:01:13;1.90;;;1.70;;
14708;SDS011;7445;50.774;4.944;2023-04-15T16:03:39;2.43;;;1.60;;
14708;SDS011;7445;50.774;4.944;2023-04-15T16:06:05;2.10;;;1.70;;
14708;SDS011;7445;50.774;4.944;2023-04-15T16:08:31;2.93;;;1.50;;
14708;SDS011;7445;50.774;4.944;2023-04-15T16:10:56;1.60;;;1.50;;
14708;SDS011;7445;50.774;4.944;2023-04-15T16:13:22;3.10;;;1.37;;
14708;SDS011;7445;50.774;4.944;2023-04-15T16:15:48;3.50;;;1.70;;
14708;SDS011;7445;50.774;4.944;2023-04-15T16:18:16;1.57;;;1.13;;
14708;SDS011;7445;50.774;4.944;2023-04-15T16:20:42;2.00;;;1.37;;
14708;SDS011;7445;50.774;4.944;2023-04-15T16:23:10;1.90;;;1.40;;
14708;SDS011;7445;50.774;4.944;2023-04-15T16:25:38;3.20;;;1.40;;
14708;SDS011;7445;50.774;4.944;2023-04-15T16:28:04;1.93;;;1.50;;
14708;SDS011;7445;50.774;4.944;2023-04-15T16:30:30;4.47;;;2.30;;
14708;SDS011;7445;50.774;4.944;2023-04-15T16:32:56;3.00;;;2.30;;
14708;SDS011;7445;50.774;4.944;2023-04-15T16:35:21;2.27;;;1.97;;
14708;SDS011;7445;50.774;4.944;2023-04-15T16:37:47;2.53;;;2.33;;
14708;SDS011;7445;50.774;4.944;2023-04-15T16:40:13;4.33;;;1.90;;
14708;SDS011;7445;50.774;4.944;2023-04-15T16:42:39;3.00;;;1.57;;
14708;SDS011;7445;50.774;4.944;2023-04-15T16:45:07;1.70;;;1.60;;
14708;SDS011;7445;50.774;4.944;2023-04-15T16:47:34;4.43;;;1.80;;
14708;SDS011;7445;50.774;4.944;2023-04-15T16:50:00;2.30;;;1.20;;
14708;SDS011;7445;50.774;4.944;2023-04-15T16:52:26;1.30;;;1.17;;
14708;SDS011;7445;50.774;4.944;2023-04-15T16:54:52;1.90;;;1.00;;
14708;SDS011;7445;50.774;4.944;2023-04-15T16:57:18;1.63;;;1.20;;
14708;SDS011;7445;50.774;4.944;2023-04-15T16:59:44;2.67;;;1.30;;
14708;SDS011;7445;50.774;4.944;2023-04-15T17:02:10;3.27;;;1.47;;
14708;SDS011;7445;50.774;4.944;2023-04-15T17:04:37;0.80;;;0.80;;
14708;SDS011;7445;50.774;4.944;2023-04-15T17:07:03;2.17;;;1.97;;
14708;SDS011;7445;50.774;4.944;2023-04-15T17:09:30;3.60;;;1.43;;
14708;SDS011;7445;50.774;4.944;2023-04-15T17:11:56;3.10;;;1.40;;
14708;SDS011;7445;50.774;4.944;2023-04-15T17:14:22;5.53;;;2.23;;
14708;SDS011;7445;50.774;4.944;2023-04-15T17:16:48;2.37;;;1.90;;
14708;SDS011;7445;50.774;4.944;2023-04-15T17:19:13;2.23;;;1.80;;
14708;SDS011;7445;50.774;4.944;2023-04-15T17:21:39;6.40;;;3.17;;
14708;SDS011;7445;50.774;4.944;2023-04-15T17:24:05;5.63;;;4.07;;
14708;SDS011;7445;50.774;4.944;2023-04-15T17:26:31;5.90;;;4.40;;
14708;SDS011;7445;50.774;4.944;2023-04-15T17:28:56;5.17;;;4.10;;
14708;SDS011;7445;50.774;4.944;2023-04-15T17:31:22;2.53;;;2.17;;
14708;SDS011;7445;50.774;4.944;2023-04-15T17:33:48;5.40;;;2.33;;
14708;SDS011;7445;50.774;4.944;2023-04-15T17:36:13;3.20;;;2.90;;
14708;SDS011;7445;50.774;4.944;2023-04-15T17:38:39;2.37;;;2.17;;
14708;SDS011;7445;50.774;4.944;2023-04-15T17:41:05;2.70;;;2.50;;
14708;SDS011;7445;50.774;4.944;2023-04-15T17:43:32;3.23;;;2.93;;
14708;SDS011;7445;50.774;4.944;2023-04-15T17:45:57;3.60;;;3.30;;
14708;SDS011;7445;50.774;4.944;2023-04-15T17:48:26;7.57;;;4.63;;
14708;SDS011;7445;50.774;4.944;2023-04-15T17:50:52;2.80;;;2.60;;
14708;SDS011;7445;50.774;4.944;2023-04-15T17:53:18;4.07;;;2.60;;
14708;SDS011;7445;50.774;4.944;2023-04-15T17:55:43;3.13;;;2.60;;
14708;SDS011;7445;50.774;4.944;2023-04-15T17:58:10;2.70;;;2.47;;
14708;SDS011;7445;50.774;4.944;2023-04-15T18:00:36;2.97;;;2.70;;
14708;SDS011;7445;50.774;4.944;2023-04-15T18:03:02;2.90;;;2.60;;
14708;SDS011;7445;50.774;4.944;2023-04-15T18:05:28;2.70;;;2.30;;
14708;SDS011;7445;50.774;4.944;2023-04-15T18:07:54;3.30;;;2.40;;
14708;SDS011;7445;50.774;4.944;2023-04-15T18:10:20;3.03;;;2.67;;
14708;SDS011;7445;50.774;4.944;2023-04-15T18:12:46;2.63;;;2.03;;
14708;SDS011;7445;50.774;4.944;2023-04-15T18:15:12;3.10;;;2.80;;
14708;SDS011;7445;50.774;4.944;2023-04-15T18:17:38;2.87;;;2.20;;
14708;SDS011;7445;50.774;4.944;2023-04-15T18:20:04;4.43;;;2.07;;
14708;SDS011;7445;50.774;4.944;2023-04-15T18:22:30;12.17;;;2.47;;
14708;SDS011;7445;50.774;4.944;2023-04-15T18:24:56;3.67;;;2.93;;
14708;SDS011;7445;50.774;4.944;2023-04-15T18:27:27;2.17;;;1.93;;
14708;SDS011;7445;50.774;4.944;2023-04-15T18:29:54;4.30;;;2.67;;
14708;SDS011;7445;50.774;4.944;2023-04-15T18:32:20;3.37;;;2.90;;
14708;SDS011;7445;50.774;4.944;2023-04-15T18:34:46;4.37;;;2.57;;
14708;SDS011;7445;50.774;4.944;2023-04-15T18:37:12;4.17;;;2.93;;
14708;SDS011;7445;50.774;4.944;2023-04-15T18:39:37;1.83;;;1.73;;
14708;SDS011;7445;50.774;4.944;2023-04-15T18:42:03;4.37;;;2.50;;
14708;SDS011;7445;50.774;4.944;2023-04-15T18:44:28;3.17;;;2.33;;
14708;SDS011;7445;50.774;4.944;2023-04-15T18:46:54;3.90;;;2.70;;
14708;SDS011;7445;50.774;4.944;2023-04-15T18:49:20;2.70;;;2.07;;
14708;SDS011;7445;50.774;4.944;2023-04-15T18:51:45;4.53;;;2.13;;
14708;SDS011;7445;50.774;4.944;2023-04-15T18:54:12;4.23;;;2.70;;
14708;SDS011;7445;50.774;4.944;2023-04-15T18:56:38;3.63;;;2.40;;
14708;SDS011;7445;50.774;4.944;2023-04-15T18:59:03;4.00;;;2.53;;
14708;SDS011;7445;50.774;4.944;2023-04-15T19:01:30;4.93;;;2.27;;
14708;SDS011;7445;50.774;4.944;2023-04-15T19:03:55;2.63;;;2.33;;
14708;SDS011;7445;50.774;4.944;2023-04-15T19:06:21;2.37;;;2.10;;
14708;SDS011;7445;50.774;4.944;2023-04-15T19:08:47;5.10;;;2.70;;
14708;SDS011;7445;50.774;4.944;2023-04-15T19:11:13;2.60;;;2.37;;
14708;SDS011;7445;50.774;4.944;2023-04-15T19:13:39;2.67;;;2.43;;
14708;SDS011;7445;50.774;4.944;2023-04-15T19:16:05;4.90;;;2.83;;
14708;SDS011;7445;50.774;4.944;2023-04-15T19:18:30;3.57;;;2.73;;
14708;SDS011;7445;50.774;4.944;2023-04-15T19:20:57;4.97;;;2.57;;
14708;SDS011;7445;50.774;4.944;2023-04-15T19:23:22;2.60;;;2.40;;
14708;SDS011;7445;50.774;4.944;2023-04-15T19:25:48;2.63;;;2.13;;
14708;SDS011;7445;50.774;4.944;2023-04-15T19:28:14;3.63;;;3.07;;
14708;SDS011;7445;50.774;4.944;2023-04-15T19:30:39;3.57;;;2.73;;
14708;SDS011;7445;50.774;4.944;2023-04-15T19:33:05;5.47;;;3.17;;
14708;SDS011;7445;50.774;4.944;2023-04-15T19:35:31;3.10;;;2.47;;
14708;SDS011;7445;50.774;4.944;2023-04-15T19:37:57;3.53;;;3.20;;
14708;SDS011;7445;50.774;4.944;2023-04-15T19:40:23;4.57;;;2.70;;
14708;SDS011;7445;50.774;4.944;2023-04-15T19:42:49;6.10;;;2.67;;
14708;SDS011;7445;50.774;4.944;2023-04-15T19:45:14;3.80;;;2.97;;
14708;SDS011;7445;50.774;4.944;2023-04-15T19:47:40;5.43;;;2.87;;
14708;SDS011;7445;50.774;4.944;2023-04-15T19:50:06;3.33;;;3.13;;
14708;SDS011;7445;50.774;4.944;2023-04-15T19:52:32;5.63;;;3.27;;
14708;SDS011;7445;50.774;4.944;2023-04-15T19:54:58;3.43;;;2.83;;
14708;SDS011;7445;50.774;4.944;2023-04-15T19:57:23;3.33;;;2.20;;
14708;SDS011;7445;50.774;4.944;2023-04-15T19:59:49;3.30;;;2.90;;
14708;SDS011;7445;50.774;4.944;2023-04-15T20:02:15;7.17;;;2.67;;
14708;SDS011;7445;50.774;4.944;2023-04-15T20:04:40;5.80;;;3.77;;
14708;SDS011;7445;50.774;4.944;2023-04-15T20:07:06;4.43;;;3.17;;
14708;SDS011;7445;50.774;4.944;2023-04-15T20:09:32;4.50;;;2.93;;
14708;SDS011;7445;50.774;4.944;2023-04-15T20:11:57;3.83;;;2.83;;
14708;SDS011;7445;50.774;4.944;2023-04-15T20:14:23;3.90;;;3.07;;
14708;SDS011;7445;50.774;4.944;2023-04-15T20:16:49;5.50;;;3.50;;
14708;SDS011;7445;50.774;4.944;2023-04-15T20:19:15;4.83;;;3.90;;
14708;SDS011;7445;50.774;4.944;2023-04-15T20:21:40;4.33;;;3.93;;
14708;SDS011;7445;50.774;4.944;2023-04-15T20:24:06;5.17;;;3.70;;
14708;SDS011;7445;50.774;4.944;2023-04-15T20:26:32;4.50;;;4.07;;
14708;SDS011;7445;50.774;4.944;2023-04-15T20:28:58;4.90;;;3.33;;
14708;SDS011;7445;50.774;4.944;2023-04-15T20:31:24;4.40;;;4.00;;
14708;SDS011;7445;50.774;4.944;2023-04-15T20:33:50;6.87;;;4.00;;
14708;SDS011;7445;50.774;4.944;2023-04-15T20:36:16;6.73;;;4.30;;
14708;SDS011;7445;50.774;4.944;2023-04-15T20:38:42;4.77;;;3.03;;
14708;SDS011;7445;50.774;4.944;2023-04-15T20:41:08;5.07;;;4.57;;
14708;SDS011;7445;50.774;4.944;2023-04-15T20:43:34;6.37;;;4.07;;
14708;SDS011;7445;50.774;4.944;2023-04-15T20:45:59;6.77;;;3.60;;
14708;SDS011;7445;50.774;4.944;2023-04-15T20:48:25;9.03;;;4.80;;
14708;SDS011;7445;50.774;4.944;2023-04-15T20:50:51;11.83;;;4.23;;
14708;SDS011;7445;50.774;4.944;2023-04-15T20:53:16;5.63;;;4.50;;
14708;SDS011;7445;50.774;4.944;2023-04-15T20:55:42;8.10;;;4.50;;
14708;SDS011;7445;50.774;4.944;2023-04-15T20:58:09;7.60;;;4.75;;
14708;SDS011;7445;50.774;4.944;2023-04-15T21:00:35;8.77;;;5.07;;
14708;SDS011;7445;50.774;4.944;2023-04-15T21:03:00;5.50;;;3.97;;
14708;SDS011;7445;50.774;4.944;2023-04-15T21:05:26;4.77;;;4.37;;
14708;SDS011;7445;50.774;4.944;2023-04-15T21:07:53;7.73;;;4.97;;
14708;SDS011;7445;50.774;4.944;2023-04-15T21:10:18;5.87;;;5.00;;
14708;SDS011;7445;50.774;4.944;2023-04-15T21:12:44;10.97;;;4.73;;
14708;SDS011;7445;50.774;4.944;2023-04-15T21:15:10;8.93;;;4.80;;
14708;SDS011;7445;50.774;4.944;2023-04-15T21:17:36;10.20;;;4.57;;
14708;SDS011;7445;50.774;4.944;2023-04-15T21:20:02;10.23;;;5.63;;
14708;SDS011;7445;50.774;4.944;2023-04-15T21:22:28;7.70;;;4.90;;
14708;SDS011;7445;50.774;4.944;2023-04-15T21:24:54;6.50;;;5.83;;
14708;SDS011;7445;50.774;4.944;2023-04-15T21:27:19;18.97;;;8.33;;
14708;SDS011;7445;50.774;4.944;2023-04-15T21:29:45;9.77;;;8.07;;
14708;SDS011;7445;50.774;4.944;2023-04-15T21:32:11;10.07;;;9.03;;
14708;SDS011;7445;50.774;4.944;2023-04-15T21:34:36;13.73;;;10.07;;
14708;SDS011;7445;50.774;4.944;2023-04-15T21:37:02;15.03;;;9.77;;
14708;SDS011;7445;50.774;4.944;2023-04-15T21:39:28;13.37;;;9.10;;
14708;SDS011;7445;50.774;4.944;2023-04-15T21:41:53;15.60;;;9.30;;
14708;SDS011;7445;50.774;4.944;2023-04-15T21:44:20;12.67;;;8.63;;
